Time;durP1;ratioP1;P1;durP2;ratioP2;P2;SDS_P1;SDS_P2;PMS_P1;PMS_P2;Temp;Humidity;BMP_temperature;BMP_pressure;BME280_temperature;BME280_humidity;BME280_pressure;Samples;Min_cycle;Max_cycle;Signal;HPM_P1;HPM_P2
2022/04/09 05:00:21;;;;;;;10.20;9.40;;;4.40;97.20;;;;;;1707348;28;20197;-71
2022/04/09 05:01:12;;;;;;;10.30;9.20;;;4.40;97.20;;;;;;1707251;28;20214;-73
2022/04/09 05:02:04;;;;;;;9.60;8.80;;;4.40;97.20;;;;;;1707344;28;20281;-73
2022/04/09 05:02:55;;;;;;;10.55;9.35;;;4.40;97.20;;;;;;1706977;28;20202;-73
2022/04/09 05:03:47;;;;;;;10.10;9.10;;;4.40;97.20;;;;;;1707132;28;20249;-73
2022/04/09 05:04:37;;;;;;;10.45;9.45;;;4.40;97.20;;;;;;1707235;28;20724;-73
2022/04/09 05:05:29;;;;;;;10.93;9.83;;;4.40;97.20;;;;;;1707318;28;20677;-73
2022/04/09 05:06:20;;;;;;;11.52;9.30;;;4.40;97.20;;;;;;1707243;28;20252;-73
2022/04/09 05:07:11;;;;;;;10.47;9.50;;;4.40;97.20;;;;;;1707156;28;20206;-72
2022/04/09 05:08:03;;;;;;;10.88;9.77;;;4.50;97.20;;;;;;1707002;28;20858;-73
2022/04/09 05:08:54;;;;;;;11.25;10.23;;;4.50;97.20;;;;;;1707272;28;20265;-72
2022/04/09 05:09:45;;;;;;;10.90;9.90;;;4.50;97.20;;;;;;1707243;28;20214;-73
2022/04/09 05:10:37;;;;;;;10.83;9.17;;;4.50;97.20;;;;;;1707227;28;20208;-73
2022/04/09 05:11:28;;;;;;;11.10;10.00;;;4.60;97.20;;;;;;1707163;28;20206;-73
2022/04/09 05:12:19;;;;;;;10.33;9.30;;;4.60;97.20;;;;;;1707285;28;20201;-73
2022/04/09 05:13:10;;;;;;;10.45;9.55;;;4.60;97.20;;;;;;1706996;28;20351;-73
2022/04/09 05:14:03;;;;;;;10.60;9.60;;;4.70;97.20;;;;;;1707146;28;20249;-73
2022/04/09 05:14:54;;;;;;;10.10;9.02;;;4.70;97.20;;;;;;1707158;28;20207;-73
2022/04/09 05:15:47;;;;;;;10.50;9.50;;;4.70;97.20;;;;;;1707267;28;20210;-73
2022/04/09 05:16:38;;;;;;;10.00;9.00;;;4.80;97.20;;;;;;1707131;28;20207;-72
2022/04/09 05:17:30;;;;;;;10.10;9.10;;;4.80;97.20;;;;;;1707253;28;20209;-72
2022/04/09 05:18:21;;;;;;;11.00;9.93;;;4.80;97.20;;;;;;1706989;28;20946;-71
2022/04/09 05:19:12;;;;;;;11.73;9.38;;;4.80;97.20;;;;;;1707038;28;20690;-72
2022/04/09 05:20:05;;;;;;;10.70;9.75;;;4.80;97.20;;;;;;1707248;28;20234;-72
2022/04/09 05:20:56;;;;;;;10.88;9.90;;;4.80;97.20;;;;;;1708597;28;20257;-72
2022/04/09 05:21:48;;;;;;;10.40;9.50;;;4.80;97.20;;;;;;1708641;28;20221;-72
2022/04/09 05:22:43;;;;;;;11.50;9.93;;;4.80;97.20;;;;;;1708512;28;20206;-71
2022/04/09 05:23:34;;;;;;;11.98;10.82;;;4.90;97.20;;;;;;1708297;28;20217;-71
2022/04/09 05:24:26;;;;;;;12.93;9.57;;;4.90;97.20;;;;;;1708579;28;20257;-71
2022/04/09 05:25:19;;;;;;;9.85;8.85;;;4.90;97.20;;;;;;1708502;28;20344;-71
2022/04/09 05:26:11;;;;;;;11.68;9.98;;;4.90;97.20;;;;;;1708478;28;20203;-71
2022/04/09 05:27:02;;;;;;;10.13;9.07;;;4.90;97.20;;;;;;1708495;28;20202;-71
2022/04/09 05:27:54;;;;;;;9.90;9.10;;;4.90;97.20;;;;;;1708418;28;20304;-71
2022/04/09 05:28:45;;;;;;;10.50;9.23;;;4.90;97.20;;;;;;1708177;28;20264;-71
2022/04/09 05:29:36;;;;;;;9.40;8.50;;;4.90;97.20;;;;;;1708370;28;20202;-71
2022/04/09 05:30:27;;;;;;;10.10;9.10;;;4.90;97.20;;;;;;1708540;28;20263;-71
2022/04/09 05:31:25;;;;;;;9.40;8.60;;;4.80;97.20;;;;;;1708412;28;20278;-71
2022/04/09 05:32:16;;;;;;;9.50;8.70;;;4.80;97.20;;;;;;1708649;28;20442;-71
2022/04/09 05:33:09;;;;;;;9.57;8.70;;;4.80;97.20;;;;;;1708334;28;20282;-71
2022/04/09 05:34:00;;;;;;;9.43;8.50;;;4.80;97.20;;;;;;1708391;28;20540;-72
2022/04/09 05:34:51;;;;;;;9.50;8.50;;;4.90;97.20;;;;;;1708447;28;20265;-71
2022/04/09 05:35:42;;;;;;;10.13;9.23;;;4.90;97.20;;;;;;1708420;28;20250;-71
2022/04/09 05:36:34;;;;;;;9.60;8.70;;;4.90;97.20;;;;;;1708461;28;20210;-71
2022/04/09 05:37:28;;;;;;;9.25;8.45;;;5.00;97.20;;;;;;1708572;28;20214;-71
2022/04/09 05:38:20;;;;;;;9.32;8.43;;;5.00;97.20;;;;;;1708110;28;20262;-71
2022/04/09 05:39:11;;;;;;;9.40;8.50;;;5.00;97.20;;;;;;1708359;28;20321;-71
2022/04/09 05:40:05;;;;;;;10.07;8.40;;;5.00;97.20;;;;;;1708400;28;20206;-71
2022/04/09 05:40:56;;;;;;;10.88;9.20;;;5.00;97.20;;;;;;1708400;28;20450;-71
2022/04/09 05:41:47;;;;;;;8.73;7.93;;;5.10;97.20;;;;;;1708508;28;20285;-71
2022/04/09 05:42:38;;;;;;;9.48;8.57;;;5.10;97.20;;;;;;1708455;28;20697;-71
2022/04/09 05:43:30;;;;;;;10.10;9.20;;;5.10;97.20;;;;;;1708222;28;20633;-71
2022/04/09 05:44:21;;;;;;;9.18;8.38;;;5.10;97.20;;;;;;1708343;28;20469;-71
2022/04/09 05:45:13;;;;;;;10.30;9.17;;;5.10;97.20;;;;;;1708401;28;20199;-71
2022/04/09 05:46:04;;;;;;;11.18;10.05;;;5.20;97.20;;;;;;1708481;28;20198;-71
2022/04/09 05:46:59;;;;;;;11.40;10.30;;;5.10;97.20;;;;;;1708357;28;20211;-71
2022/04/09 05:47:49;;;;;;;10.27;9.27;;;5.10;97.20;;;;;;1708408;28;20478;-71
2022/04/09 05:48:41;;;;;;;11.47;10.40;;;5.20;97.20;;;;;;1708154;28;20220;-71
2022/04/09 05:49:32;;;;;;;11.00;9.85;;;5.20;97.20;;;;;;1708317;28;20202;-71
2022/04/09 05:50:24;;;;;;;10.80;9.80;;;5.20;97.20;;;;;;1708352;28;20199;-71
2022/04/09 05:51:15;;;;;;;10.35;9.35;;;5.20;97.20;;;;;;1708290;28;20476;-70
2022/04/09 05:52:07;;;;;;;11.27;10.27;;;5.30;97.20;;;;;;1708501;28;20194;-71
2022/04/09 05:52:58;;;;;;;10.93;10.00;;;5.30;97.20;;;;;;1708166;28;20438;-71
2022/04/09 05:53:50;;;;;;;10.75;9.88;;;5.30;97.20;;;;;;1701625;29;20214;-71
2022/04/09 05:54:41;;;;;;;10.63;9.77;;;5.40;97.20;;;;;;1701718;29;20239;-71
2022/04/09 05:55:33;;;;;;;10.40;9.57;;;5.40;97.20;;;;;;1701628;29;20203;-71
2022/04/09 05:56:24;;;;;;;11.20;10.10;;;5.40;97.20;;;;;;1701745;29;20662;-71
2022/04/09 05:57:17;;;;;;;10.88;9.98;;;5.50;97.20;;;;;;1701693;29;20270;-72
2022/04/09 05:58:07;;;;;;;9.93;9.02;;;5.50;97.20;;;;;;1701405;29;20207;-72
2022/04/09 05:59:00;;;;;;;10.63;9.53;;;5.50;97.20;;;;;;1701569;29;20203;-72
2022/04/09 05:59:50;;;;;;;13.43;9.40;;;5.60;97.20;;;;;;1701634;29;20709;-72
2022/04/09 06:00:42;;;;;;;9.50;8.60;;;5.60;97.20;;;;;;1701731;29;20576;-72
2022/04/09 06:01:33;;;;;;;9.55;8.75;;;5.60;97.20;;;;;;1701652;29;20218;-71
2022/04/09 06:02:26;;;;;;;10.20;9.30;;;5.60;97.20;;;;;;1701696;29;20659;-72
2022/04/09 06:03:17;;;;;;;9.68;8.77;;;5.60;97.20;;;;;;1703932;29;20697;-71
2022/04/09 06:04:09;;;;;;;10.27;9.25;;;5.60;97.20;;;;;;1708236;28;20718;-72
2022/04/09 06:05:00;;;;;;;11.00;8.63;;;5.60;97.20;;;;;;1708038;28;20202;-72
2022/04/09 06:05:52;;;;;;;9.30;8.30;;;5.60;97.20;;;;;;1708323;28;20212;-72
2022/04/09 06:06:42;;;;;;;8.40;7.70;;;5.60;97.20;;;;;;1708340;28;20241;-72
2022/04/09 06:07:34;;;;;;;9.90;9.00;;;5.60;97.20;;;;;;1708221;28;20202;-71
2022/04/09 06:08:25;;;;;;;10.32;8.38;;;5.60;97.20;;;;;;1707787;28;20269;-72
2022/04/09 06:09:17;;;;;;;9.13;8.33;;;5.60;97.20;;;;;;1707968;28;20202;-71
2022/04/09 06:10:10;;;;;;;8.98;8.07;;;5.60;97.20;;;;;;1708026;29;20686;-71
2022/04/09 06:11:02;;;;;;;8.68;7.93;;;5.60;97.20;;;;;;1708153;29;20666;-72
2022/04/09 06:11:52;;;;;;;8.90;8.10;;;5.60;97.20;;;;;;1708148;29;20244;-75
2022/04/09 06:12:44;;;;;;;8.90;8.10;;;5.60;97.20;;;;;;1707072;28;20202;-73
2022/04/09 06:13:35;;;;;;;8.55;7.82;;;5.60;97.20;;;;;;1708175;28;20486;-72
2022/04/09 06:14:26;;;;;;;9.60;8.50;;;5.50;97.20;;;;;;1708123;28;20241;-73
2022/04/09 06:15:17;;;;;;;9.25;8.38;;;5.50;97.20;;;;;;1708187;29;20210;-72
2022/04/09 06:16:10;;;;;;;8.83;8.00;;;5.50;97.20;;;;;;1708203;29;20202;-72
2022/04/09 06:17:01;;;;;;;8.15;7.40;;;5.50;97.20;;;;;;1708208;29;20198;-72
2022/04/09 06:17:54;;;;;;;8.63;7.18;;;5.50;97.20;;;;;;1708186;29;20286;-72
2022/04/09 06:18:45;;;;;;;9.05;8.18;;;5.50;97.20;;;;;;1707828;29;20652;-72
2022/04/09 06:19:36;;;;;;;8.33;7.53;;;5.50;97.20;;;;;;1707972;28;20318;-72
2022/04/09 06:20:27;;;;;;;8.38;7.60;;;5.60;97.20;;;;;;1708279;29;20265;-72
2022/04/09 06:21:19;;;;;;;8.80;6.93;;;5.60;97.20;;;;;;1708224;28;20210;-71
2022/04/09 06:22:10;;;;;;;7.88;7.10;;;5.70;97.20;;;;;;1708132;29;20484;-72
2022/04/09 06:23:01;;;;;;;7.93;7.23;;;5.70;97.20;;;;;;1708160;29;20202;-72
2022/04/09 06:23:52;;;;;;;8.48;7.22;;;5.80;97.20;;;;;;1708113;28;20213;-72
2022/04/09 06:24:44;;;;;;;8.10;7.27;;;5.80;97.20;;;;;;1708243;28;20202;-72
2022/04/09 06:25:34;;;;;;;7.82;7.13;;;5.80;97.20;;;;;;1708003;29;20568;-72
2022/04/09 06:26:27;;;;;;;8.60;6.70;;;5.90;97.20;;;;;;1708205;29;20224;-72
2022/04/09 06:27:17;;;;;;;9.02;7.75;;;5.90;97.20;;;;;;1708133;29;20210;-73
2022/04/09 06:28:09;;;;;;;7.17;6.57;;;5.90;97.20;;;;;;1707974;29;20285;-72
2022/04/09 06:29:00;;;;;;;7.40;6.68;;;5.90;97.20;;;;;;1708189;29;20655;-73
2022/04/09 06:29:51;;;;;;;7.13;6.23;;;5.90;97.20;;;;;;1708141;28;20811;-73
2022/04/09 06:30:42;;;;;;;6.70;6.10;;;6.00;97.20;;;;;;1708177;29;20202;-73
2022/04/09 06:31:34;;;;;;;8.00;7.20;;;5.90;97.20;;;;;;1708027;28;20682;-72
2022/04/09 06:32:25;;;;;;;7.97;7.22;;;5.90;97.20;;;;;;1707559;29;20241;-73
2022/04/09 06:33:18;;;;;;;7.77;7.07;;;5.90;97.20;;;;;;1708184;29;20206;-72
2022/04/09 06:34:08;;;;;;;7.78;6.97;;;6.00;97.20;;;;;;1707987;28;20258;-72
2022/04/09 06:35:00;;;;;;;8.00;7.07;;;6.00;97.20;;;;;;1708133;29;20203;-72
2022/04/09 06:35:51;;;;;;;8.00;7.20;;;6.00;97.20;;;;;;1708120;29;20239;-72
2022/04/09 06:36:42;;;;;;;8.07;7.37;;;6.00;97.20;;;;;;1708040;29;20209;-71
2022/04/09 06:37:37;;;;;;;7.90;7.20;;;6.00;97.20;;;;;;1708216;28;20330;-71
2022/04/09 06:38:30;;;;;;;7.68;6.97;;;6.10;97.20;;;;;;1707759;29;20227;-71
2022/04/09 06:39:23;;;;;;;7.72;6.93;;;6.10;97.20;;;;;;1707865;29;20947;-72
2022/04/09 06:40:15;;;;;;;7.72;7.03;;;6.10;97.20;;;;;;1708083;29;20312;-71
2022/04/09 06:41:06;;;;;;;8.23;7.53;;;6.10;97.20;;;;;;1708086;29;20681;-71
2022/04/09 06:41:58;;;;;;;7.80;7.10;;;6.20;97.20;;;;;;1708176;28;20617;-71
2022/04/09 06:42:49;;;;;;;7.63;6.80;;;6.30;97.20;;;;;;1707829;29;20218;-71
2022/04/09 06:43:41;;;;;;;9.27;7.38;;;6.30;97.20;;;;;;1707470;28;20313;-71
2022/04/09 06:44:32;;;;;;;8.18;7.43;;;6.40;97.20;;;;;;1707379;29;20226;-72
2022/04/09 06:45:23;;;;;;;8.05;7.25;;;6.40;97.20;;;;;;1707864;29;20234;-71
2022/04/09 06:46:15;;;;;;;7.93;7.30;;;6.50;97.20;;;;;;1707898;29;20194;-72
2022/04/09 06:47:08;;;;;;;7.28;6.55;;;6.50;97.20;;;;;;1707810;29;20826;-71
2022/04/09 06:48:00;;;;;;;8.18;7.35;;;6.60;97.20;;;;;;1707881;29;20199;-73
2022/04/09 06:48:52;;;;;;;7.20;6.50;;;6.70;97.20;;;;;;1707677;29;20210;-70
2022/04/09 06:49:44;;;;;;;9.23;8.43;;;6.70;97.20;;;;;;1707702;29;20207;-71
2022/04/09 06:50:35;;;;;;;7.82;7.03;;;6.80;97.20;;;;;;1707764;29;20298;-71
2022/04/09 06:51:27;;;;;;;9.10;7.27;;;6.90;97.20;;;;;;1707876;29;20670;-75
2022/04/09 06:52:17;;;;;;;7.90;7.15;;;6.90;97.20;;;;;;1707007;29;20446;-71
2022/04/09 06:53:09;;;;;;;7.50;6.90;;;7.00;97.20;;;;;;1707070;29;20674;-72
2022/04/09 06:54:00;;;;;;;7.78;6.97;;;7.00;97.20;;;;;;1707578;28;20877;-70
2022/04/09 06:54:55;;;;;;;8.90;8.10;;;7.10;97.20;;;;;;1707498;28;20206;-71
2022/04/09 06:55:46;;;;;;;9.98;7.32;;;7.10;97.20;;;;;;1707728;28;20253;-72
2022/04/09 06:56:38;;;;;;;8.50;7.70;;;7.20;97.20;;;;;;1707770;28;20257;-70
2022/04/09 06:57:28;;;;;;;10.93;7.30;;;7.30;97.20;;;;;;1707705;28;20214;-71
2022/04/09 06:58:20;;;;;;;8.40;7.60;;;7.40;97.20;;;;;;1707654;28;20202;-70
2022/04/09 06:59:11;;;;;;;8.52;7.45;;;7.40;97.20;;;;;;1707811;28;20214;-70
2022/04/09 07:00:05;;;;;;;7.60;6.90;;;7.50;97.20;;;;;;1707429;28;20203;-72
2022/04/09 07:00:58;;;;;;;8.10;7.30;;;7.50;97.20;;;;;;1707982;28;20218;-70
2022/04/09 07:01:49;;;;;;;8.07;7.38;;;7.50;97.20;;;;;;1707979;28;20222;-70
2022/04/09 07:02:42;;;;;;;9.27;8.00;;;7.60;97.20;;;;;;1707951;28;20198;-71
2022/04/09 07:03:32;;;;;;;8.95;6.65;;;7.60;97.20;;;;;;1707985;28;20239;-72
2022/04/09 07:04:25;;;;;;;7.93;7.23;;;7.70;97.20;;;;;;1707929;28;20223;-71
2022/04/09 07:05:16;;;;;;;8.00;7.32;;;7.70;97.20;;;;;;1708057;28;20213;-71
2022/04/09 07:06:08;;;;;;;8.93;7.27;;;7.70;97.20;;;;;;1708080;28;20194;-71
2022/04/09 07:06:58;;;;;;;8.25;7.47;;;7.70;97.20;;;;;;1708008;28;20234;-71
2022/04/09 07:07:50;;;;;;;6.70;6.10;;;7.60;97.20;;;;;;1707891;28;20206;-71
2022/04/09 07:08:41;;;;;;;7.90;7.20;;;7.60;97.20;;;;;;1707619;28;20268;-70
2022/04/09 07:09:32;;;;;;;7.60;6.90;;;7.50;97.20;;;;;;1707683;28;20202;-69
2022/04/09 07:10:23;;;;;;;8.18;7.30;;;7.60;97.20;;;;;;1707946;28;20238;-71
2022/04/09 07:11:15;;;;;;;7.63;7.03;;;7.60;97.20;;;;;;1707975;28;20206;-69
2022/04/09 07:12:07;;;;;;;7.57;6.53;;;7.70;97.20;;;;;;1707962;28;20214;-69
2022/04/09 07:12:59;;;;;;;7.10;6.50;;;7.80;97.20;;;;;;1708023;28;20205;-71
2022/04/09 07:13:50;;;;;;;8.20;7.40;;;7.90;97.20;;;;;;1707726;28;20245;-71
2022/04/09 07:14:41;;;;;;;8.73;7.87;;;7.90;97.20;;;;;;1707888;28;20214;-72
2022/04/09 07:15:32;;;;;;;7.90;6.68;;;8.00;97.20;;;;;;1707870;28;20665;-69
2022/04/09 07:16:24;;;;;;;8.53;6.70;;;8.00;97.20;;;;;;1708012;28;20206;-69
2022/04/09 07:17:19;;;;;;;8.63;6.78;;;8.00;97.20;;;;;;1707759;28;20454;-71
2022/04/09 07:18:11;;;;;;;7.60;6.85;;;7.90;97.20;;;;;;1707561;28;20659;-71
2022/04/09 07:19:01;;;;;;;6.80;5.72;;;7.90;97.20;;;;;;1707847;28;20206;-71
2022/04/09 07:19:58;;;;;;;6.60;6.00;;;7.90;97.20;;;;;;1707484;28;20250;-71
2022/04/09 07:20:48;;;;;;;6.90;6.20;;;7.90;97.20;;;;;;1707850;28;20477;-70
2022/04/09 07:21:40;;;;;;;7.83;7.13;;;7.90;97.20;;;;;;1707847;28;20210;-71
2022/04/09 07:22:31;;;;;;;9.02;7.22;;;8.00;97.20;;;;;;1707825;28;20211;-72
2022/04/09 07:23:23;;;;;;;9.50;7.20;;;8.00;97.20;;;;;;1707793;28;20221;-70
2022/04/09 07:24:14;;;;;;;8.77;6.25;;;8.10;97.20;;;;;;1707765;28;20261;-71
2022/04/09 07:25:07;;;;;;;7.37;6.67;;;8.10;97.20;;;;;;1707945;28;20199;-71
2022/04/09 07:25:58;;;;;;;7.20;6.60;;;8.10;97.20;;;;;;1707781;28;20205;-71
2022/04/09 07:26:49;;;;;;;7.28;6.68;;;8.10;97.20;;;;;;1707815;28;20238;-71
2022/04/09 07:27:42;;;;;;;7.70;6.90;;;8.00;97.20;;;;;;1707806;28;20208;-71
2022/04/09 07:28:33;;;;;;;7.38;6.68;;;8.00;97.20;;;;;;1707451;28;20474;-71
2022/04/09 07:29:25;;;;;;;7.63;6.83;;;7.90;97.20;;;;;;1707762;28;20210;-70
2022/04/09 07:30:18;;;;;;;8.18;6.57;;;7.90;97.20;;;;;;1707493;28;20450;-71
2022/04/09 07:31:10;;;;;;;7.03;6.43;;;7.90;97.20;;;;;;1707819;28;20530;-70
2022/04/09 07:32:00;;;;;;;8.68;5.95;;;7.90;97.20;;;;;;1707841;28;20610;-70
2022/04/09 07:32:54;;;;;;;7.63;6.73;;;7.90;97.20;;;;;;1707742;28;20688;-71
2022/04/09 07:33:45;;;;;;;6.22;5.72;;;8.00;97.20;;;;;;1707597;28;20839;-72
2022/04/09 07:34:37;;;;;;;7.50;6.30;;;8.00;97.20;;;;;;1707674;28;20559;-71
2022/04/09 07:35:30;;;;;;;7.20;6.47;;;8.10;97.20;;;;;;1707796;28;20297;-71
2022/04/09 07:36:20;;;;;;;6.53;5.88;;;8.20;97.20;;;;;;1707739;28;20205;-71
2022/04/09 07:37:12;;;;;;;8.03;7.17;;;8.20;97.20;;;;;;1707790;28;20201;-70
2022/04/09 07:38:04;;;;;;;6.93;6.10;;;8.30;97.20;;;;;;1707517;28;20234;-72
2022/04/09 07:38:55;;;;;;;7.47;6.43;;;8.30;97.20;;;;;;1707675;28;20265;-70
2022/04/09 07:39:46;;;;;;;8.13;6.65;;;8.40;97.20;;;;;;1707306;28;20270;-71
2022/04/09 07:40:38;;;;;;;7.30;6.60;;;8.40;97.20;;;;;;1707542;28;20270;-71
2022/04/09 07:41:29;;;;;;;6.72;5.75;;;8.40;97.20;;;;;;1707617;29;20214;-71
2022/04/09 07:42:20;;;;;;;10.83;5.87;;;8.50;97.20;;;;;;1707689;29;20206;-71
2022/04/09 07:43:11;;;;;;;7.88;5.38;;;8.50;97.20;;;;;;1707531;28;20314;-70
2022/04/09 07:44:03;;;;;;;8.60;6.33;;;8.50;97.20;;;;;;1707749;28;20307;-71
2022/04/09 07:44:54;;;;;;;5.80;5.20;;;8.60;97.20;;;;;;1707584;29;20198;-70
2022/04/09 07:45:46;;;;;;;6.20;5.60;;;8.70;97.20;;;;;;1707639;28;20199;-70
2022/04/09 07:46:37;;;;;;;7.15;5.70;;;8.80;97.20;;;;;;1707581;29;20246;-70
2022/04/09 07:47:30;;;;;;;6.32;5.70;;;8.90;97.20;;;;;;1707597;29;20202;-71
2022/04/09 07:48:21;;;;;;;6.60;6.00;;;9.10;97.20;;;;;;1707339;29;20251;-70
2022/04/09 07:49:12;;;;;;;6.10;5.53;;;9.30;97.20;;;;;;1707508;29;20319;-71
2022/04/09 07:50:06;;;;;;;7.53;6.00;;;9.40;97.20;;;;;;1703492;29;20264;-70
2022/04/09 07:50:59;;;;;;;6.38;5.47;;;9.50;97.20;;;;;;1701077;29;20214;-71
2022/04/09 07:51:49;;;;;;;6.47;5.88;;;9.50;97.20;;;;;;1701040;29;20264;-71
2022/04/09 07:52:43;;;;;;;7.50;5.50;;;9.50;97.20;;;;;;1701041;29;20206;-71
2022/04/09 07:53:34;;;;;;;6.22;5.45;;;9.60;97.20;;;;;;1700949;29;20218;-71
2022/04/09 07:54:29;;;;;;;5.73;5.17;;;9.60;97.20;;;;;;1701040;29;20643;-69
2022/04/09 07:55:20;;;;;;;5.80;5.25;;;9.70;97.20;;;;;;1701049;29;20203;-70
2022/04/09 07:56:12;;;;;;;6.55;5.15;;;9.80;97.20;;;;;;1701035;29;20274;-70
2022/04/09 07:57:03;;;;;;;8.45;5.65;;;9.90;97.20;;;;;;1701110;29;20694;-70
2022/04/09 07:57:55;;;;;;;6.50;5.35;;;10.00;97.20;;;;;;1700975;29;20203;-69
2022/04/09 07:58:46;;;;;;;6.45;5.35;;;10.00;97.20;;;;;;1700679;29;20253;-70
2022/04/09 07:59:38;;;;;;;5.45;4.88;;;10.10;97.20;;;;;;1700906;29;20207;-71
2022/04/09 08:00:29;;;;;;;5.38;4.88;;;10.10;97.20;;;;;;1707441;29;20662;-71
2022/04/09 08:01:21;;;;;;;7.47;5.13;;;10.20;97.20;;;;;;1707564;29;20581;-71
2022/04/09 08:02:12;;;;;;;5.75;5.07;;;10.20;97.20;;;;;;1707448;29;20245;-71
2022/04/09 08:03:03;;;;;;;5.47;4.60;;;10.30;97.20;;;;;;1707622;28;20209;-71
2022/04/09 08:03:56;;;;;;;5.10;4.60;;;10.30;97.20;;;;;;1707455;28;20215;-71
2022/04/09 08:04:47;;;;;;;5.75;4.28;;;10.30;97.20;;;;;;1707411;29;20253;-71
2022/04/09 08:05:38;;;;;;;4.75;4.32;;;10.40;97.20;;;;;;1707533;29;20202;-71
2022/04/09 08:06:32;;;;;;;5.13;4.63;;;10.30;97.20;;;;;;1707537;29;20210;-70
2022/04/09 08:07:23;;;;;;;5.05;4.63;;;10.30;97.20;;;;;;1707503;29;20211;-71
2022/04/09 08:08:14;;;;;;;6.70;4.60;;;10.40;97.20;;;;;;1707179;28;20262;-70
2022/04/09 08:09:05;;;;;;;10.35;5.07;;;10.40;97.20;;;;;;1707489;29;20698;-70
2022/04/09 08:09:57;;;;;;;7.33;4.80;;;10.50;97.20;;;;;;1704659;29;20692;-71
2022/04/09 08:10:49;;;;;;;11.90;4.65;;;10.60;97.20;;;;;;1701104;29;20239;-70
2022/04/09 08:11:39;;;;;;;6.10;5.10;;;10.60;97.20;;;;;;1700957;29;20249;-71
2022/04/09 08:12:31;;;;;;;5.10;4.60;;;10.60;97.20;;;;;;1700952;29;20203;-72
2022/04/09 08:13:22;;;;;;;9.30;5.65;;;10.70;97.20;;;;;;1700901;29;20241;-71
2022/04/09 08:14:14;;;;;;;7.17;5.17;;;10.70;97.20;;;;;;1700859;29;20241;-71
2022/04/09 08:15:06;;;;;;;5.07;4.53;;;10.80;97.20;;;;;;1701013;29;20206;-71
2022/04/09 08:15:58;;;;;;;5.72;4.30;;;10.70;97.20;;;;;;1700741;29;20246;-71
2022/04/09 08:16:49;;;;;;;7.18;4.82;;;10.70;97.20;;;;;;1700872;29;20206;-71
2022/04/09 08:17:40;;;;;;;8.03;4.87;;;10.60;97.20;;;;;;1700815;29;20206;-71
2022/04/09 08:18:31;;;;;;;5.18;4.55;;;10.60;97.20;;;;;;1700603;29;20218;-71
2022/04/09 08:19:23;;;;;;;4.83;4.20;;;10.50;97.20;;;;;;1700774;29;20209;-71
2022/04/09 08:20:14;;;;;;;5.43;4.35;;;10.50;97.20;;;;;;1705178;29;20260;-71
2022/04/09 08:21:05;;;;;;;6.10;4.43;;;10.40;97.20;;;;;;1707366;29;20203;-71
2022/04/09 08:21:59;;;;;;;6.38;5.30;;;10.30;97.20;;;;;;1707341;29;20843;-71
2022/04/09 08:22:52;;;;;;;7.78;5.00;;;10.30;97.20;;;;;;1707531;28;20206;-71
2022/04/09 08:23:42;;;;;;;4.70;4.30;;;10.20;97.20;;;;;;1707311;29;20214;-71
2022/04/09 08:24:34;;;;;;;6.80;4.47;;;10.10;97.20;;;;;;1707404;28;20203;-71
2022/04/09 08:25:25;;;;;;;6.43;4.78;;;10.10;97.20;;;;;;1707379;29;20714;-71
2022/04/09 08:26:16;;;;;;;7.00;4.23;;;10.00;97.20;;;;;;1707316;29;20546;-71
2022/04/09 08:27:08;;;;;;;6.28;4.15;;;9.90;97.20;;;;;;1707363;29;20842;-71
2022/04/09 08:28:00;;;;;;;4.68;4.22;;;9.90;97.20;;;;;;1707337;29;20557;-72
2022/04/09 08:28:51;;;;;;;5.07;4.55;;;9.70;97.20;;;;;;1707159;29;20202;-71
2022/04/09 08:29:42;;;;;;;5.50;4.10;;;9.70;97.20;;;;;;1706897;29;20265;-71
2022/04/09 08:30:33;;;;;;;5.57;4.97;;;9.60;97.20;;;;;;1700744;29;20230;-71
2022/04/09 08:31:25;;;;;;;6.90;4.27;;;9.70;97.20;;;;;;1700796;29;20209;-71
2022/04/09 08:32:16;;;;;;;6.78;4.78;;;9.70;97.20;;;;;;1700707;29;20447;-71
2022/04/09 08:33:10;;;;;;;8.27;4.80;;;9.70;97.20;;;;;;1700918;29;20210;-71
2022/04/09 08:34:00;;;;;;;4.75;4.35;;;9.70;97.20;;;;;;1700684;29;20219;-71
2022/04/09 08:34:53;;;;;;;5.87;4.70;;;9.70;97.20;;;;;;1700742;29;20206;-72
2022/04/09 08:35:44;;;;;;;7.28;4.68;;;9.60;97.20;;;;;;1700797;29;20207;-71
2022/04/09 08:36:36;;;;;;;7.33;5.00;;;9.60;97.20;;;;;;1700830;29;20202;-70
2022/04/09 08:37:28;;;;;;;8.38;4.80;;;9.60;97.20;;;;;;1700819;29;20218;-70
2022/04/09 08:38:19;;;;;;;9.27;4.50;;;9.60;97.20;;;;;;1700434;29;20714;-71
2022/04/09 08:39:11;;;;;;;9.93;4.55;;;9.60;97.20;;;;;;1700764;29;20202;-71
2022/04/09 08:40:03;;;;;;;6.07;4.85;;;9.60;97.20;;;;;;1702969;29;20199;-71
2022/04/09 08:40:54;;;;;;;5.60;4.30;;;9.60;97.20;;;;;;1707330;28;20218;-70
2022/04/09 08:41:47;;;;;;;4.93;4.20;;;9.60;97.20;;;;;;1707426;29;20207;-71
2022/04/09 08:42:37;;;;;;;5.57;4.30;;;9.60;97.20;;;;;;1707253;29;20214;-71
2022/04/09 08:43:30;;;;;;;6.73;3.80;;;9.70;97.20;;;;;;1707247;29;20202;-71
2022/04/09 08:44:21;;;;;;;5.30;4.25;;;9.70;97.20;;;;;;1707231;29;20222;-71
2022/04/09 08:45:13;;;;;;;8.20;3.90;;;9.70;97.20;;;;;;1707239;29;20194;-71
2022/04/09 08:46:05;;;;;;;7.07;4.60;;;9.80;97.20;;;;;;1707395;28;20217;-71
2022/04/09 08:46:57;;;;;;;9.45;4.50;;;9.90;97.20;;;;;;1707168;29;20233;-71
2022/04/09 08:47:50;;;;;;;7.88;4.25;;;10.00;97.20;;;;;;1707230;29;20221;-71
2022/04/09 08:48:45;;;;;;;6.43;3.95;;;10.10;97.20;;;;;;1707008;29;20206;-71
2022/04/09 08:49:40;;;;;;;6.78;4.60;;;10.20;97.20;;;;;;1707168;29;20203;-71
2022/04/09 08:50:31;;;;;;;6.32;3.80;;;10.30;97.20;;;;;;1701039;28;20234;-71
2022/04/09 08:51:23;;;;;;;6.35;4.35;;;10.40;97.20;;;;;;1700736;29;20203;-71
2022/04/09 08:52:15;;;;;;;6.32;4.85;;;10.50;97.20;;;;;;1700672;29;20206;-71
2022/04/09 08:53:08;;;;;;;5.65;4.85;;;10.70;97.20;;;;;;1700679;29;20203;-71
2022/04/09 08:54:00;;;;;;;6.22;5.07;;;10.80;97.20;;;;;;1700521;29;20231;-71
2022/04/09 08:54:52;;;;;;;5.20;4.45;;;10.80;97.20;;;;;;1700495;29;20262;-71
2022/04/09 08:55:45;;;;;;;9.57;4.97;;;10.70;97.20;;;;;;1700614;29;20243;-71
2022/04/09 08:56:38;;;;;;;5.43;4.70;;;10.70;97.20;;;;;;1700579;29;20203;-71
2022/04/09 08:57:29;;;;;;;5.72;4.63;;;10.80;97.20;;;;;;1700600;29;20265;-71
2022/04/09 08:58:20;;;;;;;7.10;4.45;;;10.80;97.20;;;;;;1700419;29;20199;-71
2022/04/09 08:59:11;;;;;;;6.22;3.80;;;10.70;97.20;;;;;;1700660;29;20242;-71
2022/04/09 09:00:06;;;;;;;7.43;4.50;;;10.70;97.20;;;;;;1702375;29;20203;-71
2022/04/09 09:00:57;;;;;;;6.97;4.72;;;10.60;97.20;;;;;;1707209;28;20473;-71
2022/04/09 09:01:48;;;;;;;6.10;3.93;;;10.70;97.20;;;;;;1707158;29;20209;-71
2022/04/09 09:02:49;;;;;;;4.82;4.15;;;10.60;97.20;;;;;;1707185;29;20241;-70
2022/04/09 09:03:40;;;;;;;8.80;5.88;;;10.60;97.20;;;;;;1707203;29;20204;-71
2022/04/09 09:04:32;;;;;;;6.60;4.95;;;10.70;97.20;;;;;;1707133;29;20214;-71
2022/04/09 09:05:32;;;;;;;7.35;4.03;;;10.60;97.20;;;;;;1707325;28;20213;-71
2022/04/09 09:06:25;;;;;;;6.43;4.57;;;10.60;97.20;;;;;;1707257;29;20596;-71
2022/04/09 09:07:20;;;;;;;4.88;4.28;;;10.50;97.20;;;;;;1707237;28;20226;-71
2022/04/09 09:08:12;;;;;;;6.07;4.00;;;10.40;97.20;;;;;;1706913;29;20203;-71
2022/04/09 09:09:06;;;;;;;8.02;4.03;;;10.30;97.20;;;;;;1707113;29;20621;-71
2022/04/09 09:10:16;;;;;;;8.20;4.20;;;10.20;97.20;;;;;;1705776;29;20234;-71
2022/04/09 09:11:08;;;;;;;7.18;4.68;;;10.10;97.20;;;;;;1700700;29;20572;-71
2022/04/09 09:12:00;;;;;;;5.40;4.78;;;9.90;97.20;;;;;;1700683;29;20234;-71
2022/04/09 09:12:58;;;;;;;8.27;4.15;;;9.80;97.20;;;;;;1700605;29;20207;-71
2022/04/09 09:13:50;;;;;;;8.30;4.45;;;9.70;97.20;;;;;;1700486;29;20265;-72
2022/04/09 09:14:46;;;;;;;7.03;4.13;;;9.70;97.20;;;;;;1700670;29;20675;-72
2022/04/09 09:15:47;;;;;;;8.30;4.20;;;9.70;97.20;;;;;;1700694;29;20262;-71
2022/04/09 09:16:39;;;;;;;7.10;3.95;;;9.60;97.20;;;;;;1700580;29;20196;-71
2022/04/09 09:17:30;;;;;;;5.68;4.05;;;9.70;97.20;;;;;;1700598;29;20207;-71
2022/04/09 09:18:24;;;;;;;9.93;4.53;;;9.60;97.20;;;;;;1700240;29;20286;-70
2022/04/09 09:19:15;;;;;;;10.23;4.38;;;9.70;97.20;;;;;;1700526;29;20214;-70
2022/04/09 09:20:14;;;;;;;7.13;3.87;;;9.70;97.20;;;;;;1701280;29;20286;-70
2022/04/09 09:21:05;;;;;;;6.05;4.10;;;9.70;97.20;;;;;;1700791;29;20208;-72
2022/04/09 09:21:57;;;;;;;6.90;3.80;;;9.80;97.20;;;;;;1700651;29;20659;-72
2022/04/09 09:22:49;;;;;;;5.70;3.83;;;9.80;97.20;;;;;;1700560;29;20207;-71
2022/04/09 09:23:42;;;;;;;4.45;3.90;;;9.80;97.20;;;;;;1700456;29;20202;-71
2022/04/09 09:24:33;;;;;;;6.28;4.05;;;9.70;97.20;;;;;;1700598;29;20235;-72
2022/04/09 09:25:24;;;;;;;10.25;3.92;;;9.70;97.20;;;;;;1700646;29;20203;-71
2022/04/09 09:26:20;;;;;;;6.40;4.10;;;9.70;97.20;;;;;;1700596;29;20222;-71
2022/04/09 09:27:11;;;;;;;4.18;3.78;;;9.70;97.20;;;;;;1700676;29;20227;-71
2022/04/09 09:28:02;;;;;;;6.10;4.45;;;9.80;97.20;;;;;;1700377;29;20266;-72
2022/04/09 09:28:56;;;;;;;7.67;3.53;;;10.00;97.20;;;;;;1700548;29;20274;-72
2022/04/09 09:29:53;;;;;;;4.95;3.60;;;10.40;97.20;;;;;;1700561;29;20947;-71
2022/04/09 09:30:49;;;;;;;7.57;3.65;;;10.90;97.20;;;;;;1700534;29;20230;-71
2022/04/09 09:31:41;;;;;;;5.88;3.90;;;11.30;97.20;;;;;;1700628;29;20305;-71
2022/04/09 09:32:34;;;;;;;4.50;3.60;;;11.60;97.20;;;;;;1700486;29;20226;-71